createdAt,value
2018-07-02T00:00:56.501Z,23.19
2018-07-02T00:03:25.456Z,23.19
2018-07-02T00:06:06.477Z,23.15
2018-07-02T00:08:40.409Z,23.13
2018-07-02T00:11:08.984Z,23.13
2018-07-02T00:13:40.685Z,23.07
2018-07-02T00:16:09.254Z,23.02
2018-07-02T00:18:37.755Z,23.01
2018-07-02T00:21:06.741Z,22.99
2018-07-02T00:23:35.340Z,22.93
2018-07-02T00:26:04.479Z,22.85
2018-07-02T00:28:33.052Z,22.83
2018-07-02T00:31:01.608Z,22.82
2018-07-02T00:33:34.016Z,22.80
2018-07-02T00:36:04.380Z,22.77
2018-07-02T00:38:33.057Z,22.72
2018-07-02T00:41:01.908Z,22.68
2018-07-02T00:43:30.529Z,22.63
2018-07-02T00:45:59.110Z,22.59
2018-07-02T00:48:28.172Z,22.52
2018-07-02T00:50:56.720Z,22.50
2018-07-02T00:53:27.324Z,22.44
2018-07-02T00:55:56.376Z,22.37
2018-07-02T00:58:25.109Z,22.32
2018-07-02T01:00:53.786Z,22.32
2018-07-02T01:03:27.911Z,22.28
2018-07-02T01:05:56.483Z,22.28
2018-07-02T01:08:31.854Z,22.27
2018-07-02T01:11:00.620Z,22.26
2018-07-02T01:13:33.087Z,22.23
2018-07-02T01:16:03.250Z,22.24
2018-07-02T01:18:32.926Z,22.25
2018-07-02T01:21:01.484Z,22.21
2018-07-02T01:23:30.336Z,22.20
2018-07-02T01:25:59.179Z,22.20
2018-07-02T01:28:27.692Z,22.20
2018-07-02T01:30:56.322Z,22.19
2018-07-02T01:33:25.183Z,22.15
2018-07-02T01:35:53.721Z,22.12
2018-07-02T01:38:28.391Z,22.09
2018-07-02T01:40:56.931Z,22.05
2018-07-02T01:43:25.516Z,22.03
2018-07-02T01:45:54.404Z,22.02
2018-07-02T01:48:28.549Z,21.97
2018-07-02T01:50:57.209Z,21.92
2018-07-02T01:53:26.568Z,21.88
2018-07-02T01:55:55.243Z,21.87
2018-07-02T01:58:26.847Z,21.84
2018-07-02T02:00:55.735Z,21.82
2018-07-02T02:06:04.246Z,21.79
2018-07-02T02:08:34.183Z,21.77
2018-07-02T02:11:02.767Z,21.73
2018-07-02T02:13:31.387Z,21.65
2018-07-02T02:15:59.968Z,21.63
2018-07-02T02:18:29.965Z,21.63
2018-07-02T02:20:58.863Z,21.58
2018-07-02T02:23:32.852Z,21.54
2018-07-02T02:26:01.457Z,21.52
2018-07-02T02:28:30.240Z,21.50
2018-07-02T02:30:58.806Z,21.49
2018-07-02T02:33:27.655Z,21.48
2018-07-02T02:35:59.904Z,21.45
2018-07-02T02:38:28.502Z,21.41
2018-07-02T02:40:57.027Z,21.38
2018-07-02T02:43:25.957Z,21.36
2018-07-02T02:45:54.499Z,21.34
2018-07-02T02:48:22.984Z,21.33
2018-07-02T02:50:52.100Z,21.30
2018-07-02T02:53:25.569Z,21.25
2018-07-02T02:55:54.129Z,21.21
2018-07-02T02:58:22.990Z,21.19
2018-07-02T03:00:51.535Z,21.13
2018-07-02T03:03:20.108Z,21.10
2018-07-02T03:05:48.906Z,21.09
2018-07-02T03:08:17.435Z,21.02
2018-07-02T03:10:45.989Z,20.98
2018-07-02T03:13:14.821Z,20.93
2018-07-02T03:15:43.373Z,20.92
2018-07-02T03:18:11.912Z,20.90
2018-07-02T03:20:46.853Z,20.90
2018-07-02T03:23:15.401Z,20.88
2018-07-02T03:25:43.913Z,20.87
2018-07-02T03:28:12.705Z,20.83
2018-07-02T03:30:41.313Z,20.84
2018-07-02T03:33:09.845Z,20.79
2018-07-02T03:35:38.676Z,20.79
2018-07-02T03:38:07.295Z,20.77
2018-07-02T03:40:35.822Z,20.76
2018-07-02T03:43:12.477Z,20.73
2018-07-02T03:45:41.002Z,20.75
2018-07-02T03:48:09.611Z,20.76
2018-07-02T03:50:38.711Z,20.73
2018-07-02T03:53:07.200Z,20.75
2018-07-02T03:55:35.707Z,20.72
2018-07-02T03:58:07.231Z,20.70
2018-07-02T04:00:35.792Z,20.72
2018-07-02T04:03:04.635Z,20.70
2018-07-02T04:05:33.636Z,20.69
2018-07-02T04:08:02.665Z,20.68
2018-07-02T04:10:31.355Z,20.70
2018-07-02T04:12:59.988Z,20.71
2018-07-02T04:15:28.508Z,20.73
2018-07-02T04:17:57.137Z,20.74
2018-07-02T04:20:25.770Z,20.75
2018-07-02T04:22:54.537Z,20.77
2018-07-02T04:25:27.694Z,20.75
2018-07-02T04:27:56.227Z,20.75
2018-07-02T04:30:25.059Z,20.73
2018-07-02T04:33:08.171Z,20.77
2018-07-02T04:35:36.960Z,20.76
2018-07-02T04:38:05.647Z,20.77
2018-07-02T04:40:34.248Z,20.81
2018-07-02T04:43:03.696Z,20.84
2018-07-02T04:45:37.990Z,20.88
2018-07-02T04:48:06.585Z,20.95
2018-07-02T04:50:35.496Z,21.02
2018-07-02T04:53:04.192Z,21.07
2018-07-02T04:55:35.708Z,21.09
2018-07-02T04:58:05.716Z,21.14
2018-07-02T05:00:34.303Z,21.21
2018-07-02T05:03:02.934Z,21.28
2018-07-02T05:05:31.720Z,21.34
2018-07-02T05:08:00.406Z,21.37
2018-07-02T05:10:28.947Z,21.43
2018-07-02T05:12:57.761Z,21.47
2018-07-02T05:15:26.283Z,21.50
2018-07-02T05:17:54.839Z,21.60
2018-07-02T05:20:23.724Z,21.69
2018-07-02T05:22:52.372Z,21.75
2018-07-02T05:25:20.756Z,21.82
2018-07-02T05:30:24.337Z,21.97
2018-07-02T05:32:52.828Z,22.02
2018-07-02T05:35:21.597Z,22.09
2018-07-02T05:37:50.123Z,22.17
2018-07-02T05:40:18.679Z,22.26
2018-07-02T05:42:47.256Z,22.27
2018-07-02T05:45:15.867Z,22.33
2018-07-02T05:47:44.709Z,22.39
2018-07-02T05:50:19.910Z,22.40
2018-07-02T05:52:48.516Z,22.42
2018-07-02T05:55:17.160Z,22.49
2018-07-02T05:57:45.720Z,22.60
2018-07-02T06:00:14.667Z,22.71
2018-07-02T06:02:43.305Z,22.77
2018-07-02T06:05:11.852Z,22.83
2018-07-02T06:07:41.676Z,22.88
2018-07-02T06:10:10.153Z,22.98
2018-07-02T06:12:49.223Z,23.03
2018-07-02T06:15:18.011Z,23.05
2018-07-02T06:17:46.526Z,23.18
2018-07-02T06:20:15.017Z,23.26
2018-07-02T06:22:47.698Z,23.35
2018-07-02T06:25:16.179Z,23.34
2018-07-02T06:27:44.654Z,23.38
2018-07-02T06:30:13.430Z,23.47
2018-07-02T06:32:43.219Z,23.54
2018-07-02T06:35:11.694Z,23.54
2018-07-02T06:37:44.368Z,23.60
2018-07-02T06:40:12.808Z,23.68
2018-07-02T06:42:46.328Z,23.69
2018-07-02T06:45:15.342Z,23.70
2018-07-02T06:47:48.810Z,23.73
2018-07-02T06:50:17.326Z,23.69
2018-07-02T06:52:48.892Z,23.60
2018-07-02T06:55:17.531Z,23.55
2018-07-02T06:57:46.287Z,23.65
2018-07-02T07:00:15.289Z,23.63
2018-07-02T07:02:49.020Z,23.66
2018-07-02T07:05:24.907Z,23.73
2018-07-02T07:07:54.281Z,23.77
2018-07-02T07:10:25.923Z,23.75
2018-07-02T07:13:00.871Z,23.76
2018-07-02T07:15:29.913Z,23.80
2018-07-02T07:17:58.504Z,23.90
2018-07-02T07:20:27.074Z,23.98
2018-07-02T07:23:00.751Z,24.01
2018-07-02T07:25:29.341Z,24.11
2018-07-02T07:28:03.651Z,24.14
2018-07-02T07:30:32.285Z,24.16
2018-07-02T07:33:00.874Z,24.14
2018-07-02T07:35:30.639Z,24.10
2018-07-02T07:37:59.215Z,24.07
2018-07-02T07:40:27.814Z,24.14
2018-07-02T07:42:56.744Z,24.20
2018-07-02T07:45:25.501Z,24.14
2018-07-02T07:47:54.051Z,24.18
2018-07-02T07:50:28.939Z,24.19
2018-07-02T07:52:57.440Z,24.21
2018-07-02T07:55:25.956Z,24.10
2018-07-02T07:57:54.818Z,23.96
2018-07-02T08:00:23.400Z,23.98
2018-07-02T08:03:00.524Z,23.98
2018-07-02T08:05:29.461Z,24.10
2018-07-02T08:07:57.964Z,24.16
2018-07-02T08:10:26.475Z,24.12
2018-07-02T08:12:55.264Z,24.14
2018-07-02T08:15:23.760Z,24.06
2018-07-02T08:17:55.391Z,24.02
2018-07-02T08:20:24.136Z,23.94
2018-07-02T08:22:52.652Z,24.01
2018-07-02T08:25:21.529Z,24.09
2018-07-02T08:27:54.256Z,24.19
2018-07-02T08:30:22.780Z,24.22
2018-07-02T08:32:51.403Z,24.29
2018-07-02T08:35:20.420Z,24.34
2018-07-02T08:37:55.432Z,24.37
2018-07-02T08:40:23.944Z,24.36
2018-07-02T08:42:52.765Z,24.38
2018-07-02T08:45:21.482Z,24.40
2018-07-02T08:47:50.011Z,24.31
2018-07-02T08:50:19.010Z,24.38
2018-07-02T08:52:47.680Z,24.42
2018-07-02T08:55:16.267Z,24.41
2018-07-02T08:57:45.101Z,24.37
2018-07-02T09:00:19.842Z,24.17
2018-07-02T09:02:48.377Z,24.21
2018-07-02T09:05:17.468Z,24.29
2018-07-02T09:07:46.053Z,24.34
2018-07-02T09:10:14.595Z,24.40
2018-07-02T09:12:43.502Z,24.51
2018-07-02T09:15:12.050Z,24.57
2018-07-02T09:17:40.642Z,24.62
2018-07-02T09:20:09.446Z,24.70
2018-07-02T09:22:37.978Z,24.73
2018-07-02T09:25:06.543Z,24.71
2018-07-02T09:27:36.188Z,24.78
2018-07-02T09:30:06.037Z,24.92
2018-07-02T09:32:34.587Z,25.01
2018-07-02T09:35:14.613Z,25.12
2018-07-02T09:37:57.727Z,25.25
2018-07-02T09:40:26.516Z,25.26
2018-07-02T09:42:55.964Z,25.34
2018-07-02T09:45:24.464Z,25.44
2018-07-02T09:47:53.305Z,25.50
2018-07-02T09:50:21.876Z,25.54
2018-07-02T09:52:50.623Z,25.63
2018-07-02T09:55:19.480Z,25.74
2018-07-02T09:57:58.720Z,25.87
2018-07-02T10:00:27.242Z,25.98
2018-07-02T10:02:55.813Z,26.16
2018-07-02T10:05:24.358Z,26.32
2018-07-02T10:07:53.568Z,26.49
2018-07-02T10:10:22.072Z,26.51
2018-07-02T10:12:50.579Z,26.62
2018-07-02T10:15:21.052Z,26.75
2018-07-02T10:17:49.612Z,26.88
2018-07-02T10:20:18.303Z,27.03
2018-07-02T10:25:26.360Z,27.27
2018-07-02T10:27:55.482Z,27.41
2018-07-02T10:30:24.048Z,27.52
2018-07-02T10:32:52.557Z,27.65
2018-07-02T10:35:21.808Z,27.80
2018-07-02T10:37:56.540Z,27.88
2018-07-02T10:40:25.081Z,27.89
2018-07-02T10:42:53.595Z,28.00
2018-07-02T10:45:22.148Z,28.20
2018-07-02T10:47:50.944Z,28.36
2018-07-02T10:50:20.234Z,28.61
2018-07-02T10:52:48.775Z,28.80
2018-07-02T10:55:17.655Z,29.04
2018-07-02T10:57:46.189Z,29.21
2018-07-02T11:00:25.344Z,29.35
2018-07-02T11:02:54.180Z,29.50
2018-07-02T11:05:22.710Z,29.84
2018-07-02T11:07:56.006Z,30.03
2018-07-02T11:10:24.884Z,30.14
2018-07-02T11:12:55.412Z,30.29
2018-07-02T11:15:23.988Z,30.48
2018-07-02T11:17:53.783Z,30.62
2018-07-02T11:20:22.377Z,30.42
2018-07-02T11:22:50.931Z,30.54
2018-07-02T11:25:19.805Z,30.88
2018-07-02T11:27:48.314Z,31.02
2018-07-02T11:30:16.899Z,31.20
2018-07-02T11:32:45.739Z,31.47
2018-07-02T11:35:14.331Z,31.67
2018-07-02T11:37:42.857Z,31.92
2018-07-02T11:40:13.270Z,31.74
2018-07-02T11:42:42.069Z,32.06
2018-07-02T11:45:10.567Z,32.20
2018-07-02T11:47:39.372Z,32.48
2018-07-02T11:50:07.888Z,32.76
2018-07-02T11:52:36.412Z,32.70
2018-07-02T11:55:08.663Z,32.59
2018-07-02T11:57:37.181Z,32.85
2018-07-02T12:00:06.981Z,33.34
2018-07-02T12:02:40.948Z,33.17
2018-07-02T12:05:10.504Z,33.62
2018-07-02T12:07:39.020Z,33.81
2018-07-02T12:10:08.026Z,34.27
2018-07-02T12:12:36.884Z,34.51
2018-07-02T12:15:06.014Z,34.63
2018-07-02T12:17:34.831Z,34.86
2018-07-02T12:20:07.031Z,35.01
2018-07-02T12:22:35.695Z,35.17
2018-07-02T12:25:04.623Z,35.30
2018-07-02T12:30:19.732Z,35.62
2018-07-02T12:32:48.217Z,35.70
2018-07-02T12:35:16.723Z,35.71
2018-07-02T12:40:25.455Z,36.27
2018-07-02T12:42:54.012Z,36.32
2018-07-02T12:45:23.339Z,36.47
2018-07-02T12:47:56.172Z,36.86
2018-07-02T12:50:25.442Z,37.34
2018-07-02T12:52:54.257Z,37.86
2018-07-02T12:55:25.912Z,38.26
